createdAt,value
2019-04-23T00:00:23.556Z,16.34
2019-04-23T00:02:58.865Z,16.29
2019-04-23T00:10:51.520Z,16.18
2019-04-23T00:13:05.428Z,16.14
2019-04-23T00:15:44.755Z,16.10
2019-04-23T00:18:12.186Z,16.07
2019-04-23T00:20:40.753Z,16.03
2019-04-23T00:23:16.416Z,16.01
2019-04-23T00:25:53.679Z,15.96
2019-04-23T00:28:45.734Z,15.92
2019-04-23T00:30:56.671Z,15.89
2019-04-23T00:35:55.244Z,15.82
2019-04-23T00:38:35.194Z,15.76
2019-04-23T00:41:02.967Z,15.72
2019-04-23T00:43:37.730Z,15.68
2019-04-23T00:46:02.408Z,15.65
2019-04-23T00:51:03.549Z,15.59
2019-04-23T00:53:32.670Z,15.54
2019-04-23T00:56:26.346Z,15.50
2019-04-23T01:01:11.547Z,15.45
2019-04-23T01:03:50.404Z,15.43
2019-04-23T01:06:21.096Z,15.40
2019-04-23T01:08:50.693Z,15.37
2019-04-23T01:13:50.942Z,15.30
2019-04-23T01:19:00.979Z,15.25
2019-04-23T01:21:13.848Z,15.22
2019-04-23T01:23:53.808Z,15.20
2019-04-23T01:26:38.836Z,15.19
2019-04-23T01:29:14.734Z,15.19
2019-04-23T01:31:47.499Z,15.17
2019-04-23T01:34:19.710Z,15.16
2019-04-23T01:36:43.853Z,15.15
2019-04-23T01:39:19.356Z,15.16
2019-04-23T01:41:58.086Z,15.14
2019-04-23T01:44:34.230Z,15.13
2019-04-23T01:46:54.299Z,15.12
2019-04-23T01:49:31.008Z,15.13
2019-04-23T01:54:34.974Z,15.12
2019-04-23T01:56:56.235Z,15.11
2019-04-23T01:59:33.481Z,15.10
2019-04-23T02:02:05.142Z,15.08
2019-04-23T02:04:39.621Z,15.11
2019-04-23T02:07:06.462Z,15.10
2019-04-23T02:09:45.725Z,15.07
2019-04-23T02:12:11.505Z,15.05
2019-04-23T02:14:44.778Z,15.01
2019-04-23T02:17:10.541Z,14.99
2019-04-23T02:19:47.571Z,14.95
2019-04-23T02:22:34.357Z,14.92
2019-04-23T02:25:25.143Z,14.83
2019-04-23T02:27:54.377Z,14.81
2019-04-23T02:30:40.634Z,14.78
2019-04-23T02:33:27.391Z,14.76
2019-04-23T02:35:50.120Z,14.76
2019-04-23T02:40:38.123Z,14.69
2019-04-23T02:43:09.422Z,14.65
2019-04-23T02:45:39.897Z,14.62
2019-04-23T02:48:10.432Z,14.57
2019-04-23T02:50:49.185Z,14.53
2019-04-23T02:53:27.795Z,14.48
2019-04-23T02:55:42.782Z,14.44
2019-04-23T02:58:22.137Z,14.38
2019-04-23T03:00:55.650Z,14.34
2019-04-23T03:03:15.189Z,14.33
2019-04-23T03:05:49.361Z,14.30
2019-04-23T03:08:18.537Z,14.27
2019-04-23T03:10:53.366Z,14.23
2019-04-23T03:13:32.127Z,14.19
2019-04-23T03:16:00.986Z,14.16
2019-04-23T03:24:04.490Z,14.01
2019-04-23T03:28:57.602Z,13.89
2019-04-23T03:37:02.501Z,13.85
2019-04-23T03:38:54.313Z,13.82
2019-04-23T03:46:44.113Z,13.75
2019-04-23T03:48:57.324Z,13.71
2019-04-23T03:51:43.505Z,13.68
2019-04-23T03:59:12.574Z,13.59
2019-04-23T04:12:04.243Z,13.58
2019-04-23T04:17:09.450Z,13.59
2019-04-23T04:19:44.833Z,13.60
2019-04-23T04:22:21.502Z,13.63
2019-04-23T04:24:39.930Z,13.66
2019-04-23T04:32:03.628Z,13.69
2019-04-23T04:37:34.572Z,13.69
2019-04-23T04:39:56.437Z,13.74
2019-04-23T04:44:47.767Z,13.88
2019-04-23T04:47:32.439Z,13.99
2019-04-23T04:49:55.662Z,14.13
2019-04-23T04:54:51.957Z,14.34
2019-04-23T05:02:39.138Z,14.72
2019-04-23T05:12:43.846Z,15.09
2019-04-23T05:15:04.612Z,15.10
2019-04-23T05:17:57.283Z,15.07
2019-04-23T05:22:59.525Z,14.92
2019-04-23T05:25:12.302Z,14.86
2019-04-23T05:27:55.315Z,14.80
2019-04-23T05:30:23.000Z,14.74
2019-04-23T05:32:54.169Z,14.74
2019-04-23T05:35:42.491Z,14.77
2019-04-23T05:40:30.612Z,14.83
2019-04-23T05:42:53.319Z,14.85
2019-04-23T05:45:30.175Z,14.92
2019-04-23T05:48:06.789Z,15.03
2019-04-23T05:50:52.688Z,15.15
2019-04-23T05:53:09.926Z,15.26
2019-04-23T05:55:39.806Z,15.38
2019-04-23T05:58:08.871Z,15.47
2019-04-23T06:00:45.802Z,15.55
2019-04-23T06:05:46.568Z,15.71
2019-04-23T06:08:18.740Z,15.78
2019-04-23T06:13:31.592Z,15.91
2019-04-23T06:15:52.070Z,15.97
2019-04-23T06:20:55.879Z,16.10
2019-04-23T06:23:37.650Z,16.16
2019-04-23T06:26:10.107Z,16.23
2019-04-23T06:28:27.016Z,16.30
2019-04-23T06:31:04.668Z,16.33
2019-04-23T06:33:35.878Z,16.33
2019-04-23T06:36:05.543Z,16.34
2019-04-23T06:38:53.760Z,16.33
2019-04-23T06:41:13.078Z,16.34
2019-04-23T06:43:42.039Z,16.36
2019-04-23T06:46:11.867Z,16.38
2019-04-23T06:48:45.467Z,16.43
2019-04-23T06:53:48.632Z,16.51
2019-04-23T06:56:21.001Z,16.53
2019-04-23T06:58:43.179Z,16.55
2019-04-23T07:01:22.151Z,16.59
2019-04-23T07:03:50.311Z,16.65
2019-04-23T07:06:26.704Z,16.71
2019-04-23T07:11:29.055Z,16.89
2019-04-23T07:16:21.478Z,17.04
2019-04-23T07:18:59.116Z,17.10
2019-04-23T07:21:21.968Z,17.21
2019-04-23T07:24:05.391Z,17.29
2019-04-23T07:31:35.115Z,17.60
2019-04-23T07:34:01.979Z,17.71
2019-04-23T07:36:35.572Z,17.82
2019-04-23T07:41:56.847Z,18.03
2019-04-23T07:44:29.726Z,18.15
2019-04-23T07:47:11.333Z,18.39
2019-04-23T07:49:30.513Z,18.68
2019-04-23T07:52:03.711Z,19.03
2019-04-23T07:54:29.002Z,19.37
2019-04-23T07:57:11.672Z,19.74
2019-04-23T07:59:36.839Z,20.11
2019-04-23T08:02:06.112Z,20.43
2019-04-23T08:04:42.610Z,20.64
2019-04-23T08:07:06.619Z,20.79
2019-04-23T08:09:43.014Z,20.87
2019-04-23T08:12:19.209Z,21.01
2019-04-23T08:14:49.667Z,21.20
2019-04-23T08:17:10.846Z,21.37
2019-04-23T08:27:34.851Z,21.67
2019-04-23T08:30:06.233Z,21.63
2019-04-23T08:32:45.185Z,21.60
2019-04-23T08:35:27.044Z,21.54
2019-04-23T08:40:15.024Z,21.44
2019-04-23T08:45:22.627Z,21.35
2019-04-23T08:48:09.271Z,21.28
2019-04-23T08:53:17.828Z,21.15
2019-04-23T08:55:44.163Z,21.13
2019-04-23T08:58:17.112Z,21.11
2019-04-23T09:00:45.490Z,21.12
2019-04-23T09:03:21.997Z,21.10
2019-04-23T09:11:03.193Z,21.00
2019-04-23T09:18:21.418Z,21.07
2019-04-23T09:20:52.917Z,21.15
2019-04-23T09:23:34.671Z,21.29
2019-04-23T09:31:02.882Z,21.79
2019-04-23T09:33:46.378Z,21.92
2019-04-23T09:39:10.105Z,22.02
2019-04-23T09:41:38.136Z,22.04
2019-04-23T09:44:45.643Z,22.08
2019-04-23T09:47:00.700Z,22.08
2019-04-23T09:49:33.232Z,22.14
2019-04-23T09:52:11.191Z,22.23
2019-04-23T09:54:42.140Z,22.36
2019-04-23T09:57:04.624Z,22.44
2019-04-23T10:02:01.378Z,22.48
2019-04-23T10:04:28.528Z,22.46
2019-04-23T10:06:58.688Z,22.52
2019-04-23T10:09:16.718Z,22.61
2019-04-23T10:11:47.244Z,22.72
2019-04-23T10:14:18.334Z,22.82
2019-04-23T10:16:49.378Z,22.93
2019-04-23T10:19:19.028Z,22.95
2019-04-23T10:21:49.249Z,22.97
2019-04-23T10:24:19.329Z,22.98
2019-04-23T10:26:50.386Z,23.00
2019-04-23T10:29:21.549Z,23.05
2019-04-23T10:31:51.461Z,23.12
2019-04-23T10:34:21.215Z,23.19
2019-04-23T10:36:51.544Z,23.23
2019-04-23T10:39:25.600Z,23.25
2019-04-23T10:41:54.883Z,23.26
2019-04-23T10:44:30.326Z,23.33
2019-04-23T10:50:18.538Z,23.56
2019-04-23T10:52:37.636Z,23.64
2019-04-23T10:55:12.122Z,23.64
2019-04-23T10:57:40.992Z,23.61
2019-04-23T11:00:17.326Z,23.59
2019-04-23T11:03:11.977Z,23.54
2019-04-23T11:05:47.407Z,23.55
2019-04-23T11:07:44.041Z,23.58
2019-04-23T11:13:09.314Z,23.79
2019-04-23T11:18:09.001Z,23.83
2019-04-23T11:20:45.210Z,23.81
2019-04-23T11:23:29.376Z,23.77
2019-04-23T11:25:57.801Z,23.88
2019-04-23T11:31:03.183Z,24.04
2019-04-23T11:33:40.304Z,24.00
2019-04-23T11:36:35.545Z,24.00
2019-04-23T11:41:19.289Z,23.86
2019-04-23T11:43:43.590Z,23.66
2019-04-23T11:46:39.827Z,23.54
2019-04-23T11:49:20.312Z,23.49
2019-04-23T11:51:49.007Z,23.46
2019-04-23T11:56:35.438Z,23.34
2019-04-23T12:04:05.002Z,23.08
2019-04-23T12:06:39.046Z,22.99
2019-04-23T12:09:33.756Z,22.87
2019-04-23T12:12:02.384Z,22.77
2019-04-23T12:14:40.491Z,22.69
2019-04-23T12:17:20.293Z,22.58
2019-04-23T12:22:17.968Z,22.51
2019-04-23T12:25:03.458Z,22.49
2019-04-23T12:27:25.926Z,22.50
2019-04-23T12:29:47.543Z,22.54
2019-04-23T12:35:04.313Z,22.53
2019-04-23T12:37:36.355Z,22.51
2019-04-23T12:40:06.051Z,22.48
2019-04-23T12:50:42.214Z,22.48
2019-04-23T12:52:51.200Z,22.46
2019-04-23T12:55:27.904Z,22.48
2019-04-23T13:00:30.814Z,22.49
2019-04-23T13:02:55.514Z,22.50
2019-04-23T13:05:27.006Z,22.50
2019-04-23T13:08:02.045Z,22.50
2019-04-23T13:10:35.549Z,22.48
2019-04-23T13:15:34.351Z,22.48
2019-04-23T13:20:51.412Z,22.54
2019-04-23T13:25:58.265Z,22.52
2019-04-23T13:28:35.361Z,22.51
2019-04-23T13:31:08.392Z,22.55
2019-04-23T13:33:40.528Z,22.56
2019-04-23T13:41:17.333Z,22.54
2019-04-23T13:48:42.319Z,22.49
2019-04-23T13:53:59.289Z,22.45
2019-04-23T13:56:24.520Z,22.45
2019-04-23T13:58:53.163Z,22.49
2019-04-23T14:01:25.404Z,22.48
2019-04-23T14:03:59.563Z,22.49
2019-04-23T14:08:59.780Z,22.48
2019-04-23T14:14:14.478Z,22.49
2019-04-23T14:16:35.845Z,22.49
2019-04-23T14:21:35.250Z,22.50
2019-04-23T14:26:35.155Z,22.51
2019-04-23T14:29:04.423Z,22.53
2019-04-23T14:31:35.955Z,22.54
2019-04-23T14:36:42.558Z,22.66
2019-04-23T14:39:10.122Z,22.71
2019-04-23T14:41:42.569Z,22.72
2019-04-23T14:44:23.787Z,22.76
2019-04-23T14:47:23.954Z,22.79
2019-04-23T14:49:36.078Z,22.77
2019-04-23T14:55:18.015Z,22.84
2019-04-23T14:57:20.305Z,22.86
2019-04-23T14:59:41.686Z,22.86
2019-04-23T15:02:18.414Z,22.88
2019-04-23T15:04:43.806Z,22.91
2019-04-23T15:07:16.844Z,22.92
2019-04-23T15:09:52.857Z,22.96
2019-04-23T15:12:27.755Z,22.99
2019-04-23T15:14:56.265Z,23.01
2019-04-23T15:17:22.183Z,23.04
2019-04-23T15:25:01.338Z,23.20
2019-04-23T15:29:48.252Z,23.28
2019-04-23T15:32:37.662Z,23.30
2019-04-23T15:35:13.317Z,23.31
2019-04-23T15:45:07.971Z,23.46
2019-04-23T15:47:45.347Z,23.51
2019-04-23T15:52:48.396Z,23.52
2019-04-23T15:55:05.714Z,23.52
2019-04-23T16:00:15.774Z,23.49
2019-04-23T16:02:16.987Z,23.48
2019-04-23T16:04:47.220Z,23.46
2019-04-23T16:07:34.011Z,23.45
2019-04-23T16:10:26.121Z,23.41
2019-04-23T16:12:54.707Z,23.38
2019-04-23T16:15:19.718Z,23.37
2019-04-23T16:17:50.278Z,23.37
2019-04-23T16:20:33.393Z,23.33
2019-04-23T16:22:50.899Z,23.29
2019-04-23T16:25:20.306Z,23.27
2019-04-23T16:28:05.404Z,23.27
2019-04-23T16:30:36.457Z,23.25
2019-04-23T16:41:17.814Z,23.20
2019-04-23T16:43:49.297Z,23.20
2019-04-23T16:46:17.814Z,23.21
2019-04-23T16:53:44.692Z,23.57
2019-04-23T16:56:25.836Z,23.53
2019-04-23T16:59:00.058Z,23.46
2019-04-23T17:01:37.623Z,23.42
2019-04-23T17:04:00.702Z,23.37
2019-04-23T17:06:36.718Z,23.35
2019-04-23T17:09:09.989Z,23.33
2019-04-23T17:11:41.785Z,23.34
2019-04-23T17:14:13.465Z,23.34
2019-04-23T17:16:38.285Z,23.32
2019-04-23T17:19:16.467Z,23.31
2019-04-23T17:26:54.237Z,23.28
2019-04-23T17:29:28.295Z,23.27
2019-04-23T17:31:45.442Z,23.28
2019-04-23T17:34:30.207Z,23.25
2019-04-23T17:37:07.399Z,23.24
2019-04-23T17:39:33.645Z,23.20
2019-04-23T17:47:22.430Z,23.09
2019-04-23T17:50:03.423Z,23.05
2019-04-23T17:54:59.390Z,23.01
2019-04-23T17:57:26.388Z,22.96
2019-04-23T18:02:51.789Z,22.88
2019-04-23T18:05:11.163Z,22.84
2019-04-23T18:10:24.795Z,22.75
2019-04-23T18:15:15.792Z,22.66
2019-04-23T18:17:43.344Z,22.61
2019-04-23T18:20:16.714Z,22.59
2019-04-23T18:22:56.863Z,22.56
2019-04-23T18:25:36.879Z,22.54
2019-04-23T18:28:00.121Z,22.50
2019-04-23T18:30:59.590Z,22.48
2019-04-23T18:34:00.630Z,22.44
2019-04-23T18:36:05.351Z,22.43
2019-04-23T18:43:48.336Z,22.42
2019-04-23T18:46:14.925Z,22.40
2019-04-23T18:56:15.390Z,22.36
2019-04-23T18:58:54.666Z,22.32
2019-04-23T19:01:22.952Z,22.29
2019-04-23T19:06:51.217Z,22.20
2019-04-23T19:09:47.479Z,22.13
2019-04-23T19:15:04.099Z,22.09
2019-04-23T19:20:00.567Z,22.06
2019-04-23T19:22:48.082Z,22.05
2019-04-23T19:25:07.078Z,22.05
2019-04-23T19:27:38.602Z,22.01
2019-04-23T19:30:03.387Z,21.99
2019-04-23T19:32:43.773Z,21.97
2019-04-23T19:35:23.460Z,21.95
2019-04-23T19:40:11.979Z,21.90
2019-04-23T19:42:52.364Z,21.85
2019-04-23T19:45:24.700Z,21.82
2019-04-23T19:47:58.550Z,21.79
2019-04-23T19:50:23.982Z,21.75
2019-04-23T19:55:24.231Z,21.69
2019-04-23T20:00:28.546Z,21.64
2019-04-23T20:03:13.650Z,21.62
2019-04-23T20:05:30.848Z,21.60
2019-04-23T20:10:39.544Z,21.56
2019-04-23T20:13:05.145Z,21.55
2019-04-23T20:16:01.172Z,21.54
2019-04-23T20:18:17.367Z,21.51
2019-04-23T20:20:51.407Z,21.51
2019-04-23T20:23:24.905Z,21.49
2019-04-23T20:26:12.161Z,21.48
2019-04-23T20:28:52.403Z,21.47
2019-04-23T20:31:55.240Z,21.45
2019-04-23T20:36:29.920Z,21.37
2019-04-23T20:38:59.302Z,21.37
2019-04-23T20:41:55.123Z,21.39
2019-04-23T20:44:28.208Z,21.34
2019-04-23T20:46:54.258Z,21.35
2019-04-23T20:49:23.649Z,21.36
2019-04-23T20:51:57.646Z,21.35
2019-04-23T20:54:35.493Z,21.34
2019-04-23T20:57:19.294Z,21.32
2019-04-23T20:59:49.913Z,21.24
2019-04-23T21:02:28.359Z,21.22
2019-04-23T21:04:57.287Z,21.18
2019-04-23T21:07:31.579Z,21.15
2019-04-23T21:10:01.062Z,21.10
2019-04-23T21:12:27.833Z,21.07
2019-04-23T21:17:24.778Z,21.02
2019-04-23T21:25:00.302Z,20.97
2019-04-23T21:28:06.357Z,20.91
2019-04-23T21:38:56.892Z,20.73
2019-04-23T21:41:49.986Z,20.69
2019-04-23T21:46:28.221Z,20.62
2019-04-23T21:49:09.421Z,20.60
2019-04-23T21:51:41.451Z,20.57
2019-04-23T21:56:33.111Z,20.50
2019-04-23T22:01:36.669Z,20.41
2019-04-23T22:06:46.105Z,20.27
2019-04-23T22:14:27.546Z,20.11
2019-04-23T22:16:49.897Z,20.04
2019-04-23T22:19:17.070Z,20.01
2019-04-23T22:21:50.291Z,19.94
2019-04-23T22:24:27.598Z,19.88
2019-04-23T22:26:50.621Z,19.84
2019-04-23T22:34:33.943Z,19.69
2019-04-23T22:37:04.571Z,19.62
2019-04-23T22:39:54.122Z,19.56
2019-04-23T22:42:36.278Z,19.49
2019-04-23T22:45:00.486Z,19.45
2019-04-23T22:47:15.548Z,19.43
2019-04-23T22:52:22.892Z,19.37
2019-04-23T22:57:45.457Z,19.33
2019-04-23T23:00:12.933Z,19.29
2019-04-23T23:05:39.807Z,19.23
2019-04-23T23:08:01.624Z,19.22
2019-04-23T23:15:30.550Z,19.24
2019-04-23T23:18:07.331Z,19.27
2019-04-23T23:20:32.720Z,19.28
2019-04-23T23:23:13.206Z,19.31
2019-04-23T23:25:34.880Z,19.29
2019-04-23T23:28:15.063Z,19.29
2019-04-23T23:30:45.237Z,19.29
2019-04-23T23:33:12.882Z,19.29
2019-04-23T23:36:00.182Z,19.30
2019-04-23T23:38:21.537Z,19.27
2019-04-23T23:40:47.257Z,19.25
2019-04-23T23:45:57.250Z,19.20
2019-04-23T23:50:57.034Z,19.11
2019-04-23T23:55:58.252Z,19.05
2019-04-23T23:58:36.135Z,18.98
